Time;durP1;ratioP1;P1;durP2;ratioP2;P2;SDS_P1;SDS_P2;PMS_P1;PMS_P2;Temp;Humidity;BMP_temperature;BMP_pressure;BME280_temperature;BME280_humidity;BME280_pressure;Samples;Min_cycle;Max_cycle;Signal;HPM_P1;HPM_P2
2023/01/13 08:24:09;;;;;;;24.60;8.10;;;;;;;8.78;100.00;98462.34;67783;1277;1016304;-61
2023/01/13 08:27:12;;;;;;;22.40;7.20;;;;;;;8.83;100.00;98459.46;67845;1278;1016390;-60
2023/01/13 08:30:14;;;;;;;23.00;7.60;;;;;;;8.82;100.00;98460.36;67798;1278;1016090;-61
2023/01/13 08:33:17;;;;;;;23.80;8.60;;;;;;;8.96;100.00;98463.17;67831;1277;1016055;-60
2023/01/13 08:36:19;;;;;;;23.90;8.20;;;;;;;9.07;100.00;98469.71;67811;1278;1016284;-60
2023/01/13 08:39:21;;;;;;;19.50;6.00;;;;;;;9.09;100.00;98470.61;67782;1277;1016500;-60
2023/01/13 08:42:25;;;;;;;21.00;6.20;;;;;;;9.14;100.00;98473.62;67790;1278;1016381;-61
2023/01/13 08:45:28;;;;;;;28.30;9.50;;;;;;;9.01;100.00;98469.85;67783;1277;1016383;-61
2023/01/13 08:48:30;;;;;;;;;;;;;;;9.06;100.00;98473.45;67828;1277;1016823;-60
2023/01/13 08:51:33;;;;;;;27.80;9.50;;;;;;;9.04;100.00;98474.75;67830;1277;1016880;-60
2023/01/13 08:54:36;;;;;;;;;;;;;;;9.15;100.00;98471.14;67785;1278;1016455;-60
2023/01/13 08:57:38;;;;;;;21.50;7.60;;;;;;;9.22;100.00;98469.81;67789;1277;1016289;-60
2023/01/13 09:00:42;;;;;;;21.40;7.00;;;;;;;9.27;100.00;98470.94;67742;1277;1016405;-61
2023/01/13 09:03:46;;;;;;;20.80;6.20;;;;;;;9.35;100.00;98468.00;67855;1277;1016392;-59
2023/01/13 09:06:49;;;;;;;18.10;5.40;;;;;;;9.39;100.00;98470.69;67833;1278;1016024;-59
2023/01/13 09:09:52;;;;;;;;;;;;;;;9.47;100.00;98471.23;67825;1277;1016443;-58
2023/01/13 09:13:14;;;;;;;22.90;5.60;;;;;;;9.55;100.00;98470.08;67833;1277;1016414;-58
2023/01/13 09:16:17;;;;;;;18.20;5.10;;;;;;;9.56;100.00;98469.88;67855;1278;1016390;-60
2023/01/13 09:19:20;;;;;;;21.00;5.10;;;;;;;9.59;100.00;98464.45;67786;1278;1018502;-60
2023/01/13 09:22:25;;;;;;;17.90;5.00;;;;;;;9.63;100.00;98463.12;67865;1278;1016375;-59
2023/01/13 09:25:28;;;;;;;17.20;4.50;;;;;;;9.74;100.00;98457.02;67721;1277;1016530;-59
2023/01/13 09:28:32;;;;;;;21.30;5.40;;;;;;;9.72;100.00;98454.34;67881;1278;1016375;-60
2023/01/13 09:31:34;;;;;;;18.30;5.20;;;;;;;9.73;100.00;98452.38;67888;1278;1016507;-59
2023/01/13 09:37:58;;;;;;;19.20;5.30;;;;;;;9.82;100.00;98451.81;67812;1277;1016363;-60
2023/01/13 09:43:52;;;;;;;;;;;;;;;9.84;100.00;98449.91;67809;1277;1016407;-60
2023/01/13 09:44:23;;;;;;;23.50;7.10;;;;;;;9.90;100.00;98443.95;67860;1264;1016234;-59
2023/01/13 09:47:26;;;;;;;23.40;7.50;;;;;;;10.00;100.00;98445.27;67856;1278;1016475;-60
2023/01/13 09:50:28;;;;;;;19.60;5.70;;;;;;;10.09;100.00;98440.64;67809;1278;1016365;-59
2023/01/13 09:53:32;;;;;;;19.50;6.00;;;;;;;10.21;100.00;98443.36;67855;1278;1016441;-60
2023/01/13 09:56:34;;;;;;;17.00;4.90;;;;;;;10.25;100.00;98443.27;67815;1277;1016516;-60
2023/01/13 09:59:37;;;;;;;20.50;5.10;;;;;;;10.30;100.00;98440.48;67842;1278;1016344;-60
2023/01/13 10:02:40;;;;;;;;;;;;;;;10.35;100.00;98442.11;67820;1278;1016076;-59
2023/01/13 10:05:43;;;;;;;20.50;5.30;;;;;;;10.41;100.00;98433.85;67856;1278;1016479;-59
2023/01/13 10:08:46;;;;;;;;;;;;;;;10.42;100.00;98429.96;67841;1278;1016890;-60
2023/01/13 10:15:09;;;;;;;18.90;5.40;;;;;;;10.50;100.00;98420.88;67855;1278;1016123;-60
2023/01/13 10:18:20;;;;;;;21.50;6.00;;;;;;;10.47;100.00;98415.98;67834;1278;1016908;-59
2023/01/13 10:21:23;;;;;;;;;;;;;;;10.50;100.00;98417.87;67863;1278;1017550;-60
2023/01/13 10:24:26;;;;;;;;;;;;;;;10.53;100.00;98410.48;65256;1277;6382976;-60
2023/01/13 10:27:28;;;;;;;21.70;5.80;;;;;;;10.55;100.00;98406.02;67851;1278;1016684;-60
2023/01/13 10:30:31;;;;;;;20.70;5.90;;;;;;;10.61;100.00;98407.88;67856;1278;1016327;-60
2023/01/13 10:33:34;;;;;;;23.20;5.90;;;;;;;10.61;100.00;98409.48;67813;1277;1017115;-60
2023/01/13 10:36:37;;;;;;;19.20;5.60;;;;;;;10.75;100.00;98405.90;67825;1278;1017097;-60
2023/01/13 10:39:40;;;;;;;19.60;5.20;;;;;;;10.84;100.00;98408.63;67860;1278;1016552;-60
2023/01/13 10:42:43;;;;;;;;;;;;;;;10.89;100.00;98406.30;67836;1278;1016461;-60
2023/01/13 10:45:45;;;;;;;18.70;5.50;;;;;;;10.91;100.00;98403.35;67858;1278;1016412;-60
2023/01/13 10:48:48;;;;;;;19.30;5.60;;;;;;;10.95;100.00;98404.91;67868;1278;1016161;-60
2023/01/13 10:51:51;;;;;;;20.50;5.70;;;;;;;11.00;100.00;98408.35;67799;1278;1016366;-60
2023/01/13 10:54:53;;;;;;;20.30;6.20;;;;;;;11.06;100.00;98403.22;67840;1277;1016514;-60
2023/01/13 10:57:56;;;;;;;22.80;6.10;;;;;;;11.13;100.00;98398.76;67818;1278;1019959;-60
2023/01/13 11:00:58;;;;;;;20.00;5.80;;;;;;;11.10;100.00;98395.81;67849;1278;1016240;-60
2023/01/13 11:04:00;;;;;;;21.40;6.00;;;;;;;11.19;100.00;98388.17;67812;1278;1016358;-60
2023/01/13 11:07:03;;;;;;;22.80;7.00;;;;;;;11.23;100.00;98390.82;67802;1277;1017182;-60
2023/01/13 11:10:05;;;;;;;23.20;5.50;;;;;;;11.28;100.00;98385.79;67823;1278;1018117;-60
2023/01/13 11:13:08;;;;;;;23.50;6.70;;;;;;;11.41;100.00;98388.51;67826;1278;1016245;-60
2023/01/13 11:16:10;;;;;;;20.70;5.80;;;;;;;11.47;100.00;98377.77;67848;1278;1016242;-60
2023/01/13 11:19:13;;;;;;;21.20;6.60;;;;;;;11.63;100.00;98377.55;67815;1278;1016910;-60
2023/01/13 11:22:15;;;;;;;21.50;5.90;;;;;;;11.71;100.00;98372.73;67830;1277;1016415;-60
2023/01/13 11:25:17;;;;;;;18.80;5.10;;;;;;;11.92;100.00;98369.28;67794;1278;1015791;-60
2023/01/13 11:28:20;;;;;;;21.40;5.30;;;;;;;11.96;100.00;98368.33;67808;1278;1016369;-60
2023/01/13 11:31:23;;;;;;;18.70;5.00;;;;;;;11.96;100.00;98365.83;67861;1277;1016088;-60
2023/01/13 11:34:25;;;;;;;20.80;6.50;;;;;;;11.96;100.00;98366.38;67780;1278;1016233;-60
2023/01/13 11:37:28;;;;;;;18.20;5.30;;;;;;;12.02;100.00;98363.19;67829;1278;1016425;-60
2023/01/13 11:40:30;;;;;;;19.80;5.70;;;;;;;12.02;100.00;98361.42;67829;1277;1016246;-60
2023/01/13 11:43:33;;;;;;;20.30;5.90;;;;;;;12.12;100.00;98368.56;67873;1278;1016126;-60
2023/01/13 11:46:35;;;;;;;23.30;5.10;;;;;;;12.19;100.00;98365.17;67805;1277;1016068;-60
2023/01/13 11:49:38;;;;;;;25.50;5.70;;;;;;;12.14;100.00;98359.09;67801;1278;1016641;-60
2023/01/13 11:52:40;;;;;;;;;;;;;;;12.07;100.00;98362.40;67847;1278;1016362;-60
2023/01/13 11:55:43;;;;;;;20.10;5.10;;;;;;;12.03;100.00;98362.39;67867;1278;1016324;-60
2023/01/13 11:58:45;;;;;;;23.00;5.80;;;;;;;11.98;100.00;98359.42;67844;1277;1016022;-60
2023/01/13 12:01:48;;;;;;;19.60;5.60;;;;;;;11.86;100.00;98356.21;67806;1277;1016452;-60
2023/01/13 12:04:50;;;;;;;19.90;5.10;;;;;;;11.93;100.00;98354.99;67803;1277;1016794;-60
2023/01/13 12:07:52;;;;;;;19.80;5.70;;;;;;;11.96;100.00;98355.02;67810;1277;1016569;-60
2023/01/13 12:10:55;;;;;;;21.40;6.20;;;;;;;11.96;100.00;98358.67;67857;1277;1016376;-60
2023/01/13 12:13:57;;;;;;;19.40;5.10;;;;;;;11.89;100.00;98352.13;67865;1277;1016366;-60
2023/01/13 12:17:00;;;;;;;23.80;6.20;;;;;;;11.90;100.00;98345.45;67842;1277;1015994;-60
2023/01/13 12:20:02;;;;;;;23.30;6.90;;;;;;;11.91;100.00;98348.01;67842;1277;1015646;-60
2023/01/13 12:23:04;;;;;;;26.30;6.70;;;;;;;12.00;100.00;98340.03;67854;1278;1016242;-60
2023/01/13 12:26:07;;;;;;;21.90;6.30;;;;;;;11.94;100.00;98339.88;67797;1278;1016146;-60
2023/01/13 12:29:09;;;;;;;21.80;5.30;;;;;;;11.97;100.00;98334.76;67838;1277;1016364;-60
2023/01/13 12:32:12;;;;;;;18.90;5.50;;;;;;;12.06;100.00;98335.33;67816;1278;1016428;-60
2023/01/13 12:35:15;;;;;;;22.10;5.60;;;;;;;12.09;100.00;98334.17;67818;1277;1017595;-60
2023/01/13 12:38:18;;;;;;;20.20;5.00;;;;;;;12.09;100.00;98330.02;67794;1277;1015950;-60
2023/01/13 12:41:22;;;;;;;21.20;5.80;;;;;;;12.01;100.00;98331.48;67822;1277;1018772;-60
2023/01/13 12:44:24;;;;;;;21.80;6.30;;;;;;;12.05;100.00;98338.55;67830;1277;1016609;-60
2023/01/13 12:47:27;;;;;;;20.00;5.40;;;;;;;12.09;100.00;98337.36;67849;1278;1016116;-60
2023/01/13 12:50:29;;;;;;;21.40;5.80;;;;;;;12.13;100.00;98332.77;67870;1278;1018853;-60
2023/01/13 12:53:32;;;;;;;20.70;6.00;;;;;;;12.16;100.00;98336.88;67817;1278;1016372;-60
2023/01/13 12:56:34;;;;;;;22.10;6.00;;;;;;;12.15;100.00;98336.09;67775;1277;1016323;-60
2023/01/13 12:59:37;;;;;;;22.00;6.40;;;;;;;12.21;100.00;98338.27;67798;1277;1016422;-60
2023/01/13 13:02:39;;;;;;;22.40;6.00;;;;;;;12.19;100.00;98332.45;67824;1278;1016449;-60
2023/01/13 13:05:42;;;;;;;18.80;5.20;;;;;;;12.19;100.00;98329.81;67873;1278;1016449;-60
2023/01/13 13:08:44;;;;;;;22.80;5.60;;;;;;;12.14;100.00;98331.44;67825;1277;1016383;-60
2023/01/13 13:15:07;;;;;;;23.20;5.80;;;;;;;12.20;100.00;98332.90;67844;1277;1016431;-60
2023/01/13 13:18:10;;;;;;;;;;;;;;;12.13;100.00;98339.55;67879;1278;1016584;-60
2023/01/13 13:21:12;;;;;;;21.40;5.70;;;;;;;12.11;100.00;98339.30;67821;1278;1016731;-60
2023/01/13 13:24:17;;;;;;;19.20;4.90;;;;;;;12.15;100.00;98329.23;67830;1277;1016238;-60
2023/01/13 13:27:19;;;;;;;18.50;5.60;;;;;;;12.08;100.00;98332.91;67882;1277;1016529;-60
2023/01/13 13:30:21;;;;;;;22.10;5.40;;;;;;;11.98;100.00;98337.13;67886;1278;1016421;-60
2023/01/13 13:33:24;;;;;;;23.20;6.10;;;;;;;11.91;100.00;98343.27;67846;1277;1016509;-60
2023/01/13 13:36:26;;;;;;;20.60;6.00;;;;;;;11.83;100.00;98347.51;67830;1277;1020179;-60
2023/01/13 13:49:34;;;;;;;22.40;7.90;;;;;;;11.69;100.00;98357.43;67804;1277;1016225;-60
2023/01/13 13:52:37;;;;;;;;;;;;;;;11.66;100.00;98358.23;67816;1277;1016085;-60
2023/01/13 13:55:39;;;;;;;22.20;5.30;;;;;;;11.62;100.00;98352.39;67824;1278;1016199;-60
2023/01/13 13:58:42;;;;;;;21.70;7.00;;;;;;;11.60;100.00;98355.81;67829;1277;1016487;-60
2023/01/13 14:01:44;;;;;;;21.60;5.70;;;;;;;11.52;100.00;98353.94;67812;1277;1016214;-60
2023/01/13 14:04:47;;;;;;;25.70;6.80;;;;;;;11.48;100.00;98357.77;67866;1277;1016215;-60
2023/01/13 14:07:49;;;;;;;;;;;;;;;11.42;100.00;98356.93;67821;1277;1016352;-60
2023/01/13 14:10:52;;;;;;;20.90;6.00;;;;;;;11.36;100.00;98357.00;67815;1278;1016451;-60
2023/01/13 14:13:54;;;;;;;;;;;;;;;11.31;100.00;98355.27;67872;1278;1016629;-60
2023/01/13 14:16:57;;;;;;;22.90;5.50;;;;;;;11.26;100.00;98354.23;67822;1277;1016274;-60
2023/01/13 14:20:00;;;;;;;23.90;6.20;;;;;;;11.18;100.00;98351.82;67842;1277;1016315;-60
2023/01/13 14:23:04;;;;;;;22.20;6.20;;;;;;;11.19;100.00;98361.75;67803;1277;1016367;-60
2023/01/13 14:26:07;;;;;;;19.70;5.60;;;;;;;11.14;100.00;98363.11;67844;1278;1016102;-61
2023/01/13 14:29:09;;;;;;;;;;;;;;;11.08;100.00;98360.77;67803;1278;1016383;-60
2023/01/13 14:32:12;;;;;;;25.50;6.20;;;;;;;11.01;100.00;98364.71;67783;1277;1015937;-60
2023/01/13 14:35:14;;;;;;;20.10;6.30;;;;;;;10.95;100.00;98359.91;67898;1278;1018541;-60
2023/01/13 14:38:17;;;;;;;29.40;10.60;;;;;;;10.93;100.00;98361.96;67879;1277;1016895;-60
2023/01/13 14:41:19;;;;;;;27.60;8.60;;;;;;;10.84;100.00;98363.66;67842;1277;1016264;-60
2023/01/13 14:44:25;;;;;;;23.70;6.90;;;;;;;10.81;100.00;98364.55;67812;1278;1016997;-60
2023/01/13 14:47:28;;;;;;;22.80;6.90;;;;;;;10.75;100.00;98362.48;67876;1278;1016138;-60
2023/01/13 14:50:32;;;;;;;21.40;5.90;;;;;;;10.77;100.00;98363.60;67810;1278;1018854;-59
2023/01/13 14:53:35;;;;;;;24.80;6.80;;;;;;;10.70;100.00;98360.05;67851;1278;1019451;-60
2023/01/13 14:56:38;;;;;;;23.20;6.20;;;;;;;10.63;100.00;98361.25;67836;1277;1016165;-60
2023/01/13 14:59:40;;;;;;;25.30;7.30;;;;;;;10.61;100.00;98362.46;67817;1278;1016232;-60
2023/01/13 15:02:42;;;;;;;24.80;7.70;;;;;;;10.61;100.00;98362.48;67838;1278;1016747;-60
2023/01/13 15:05:48;;;;;;;;;;;;;;;10.58;100.00;98358.96;67880;1277;1016395;-60
2023/01/13 15:08:50;;;;;;;26.80;8.40;;;;;;;10.63;100.00;98357.39;67800;1277;1016423;-60
2023/01/13 15:11:55;;;;;;;25.50;6.80;;;;;;;10.52;100.00;98361.44;67808;1277;1015974;-60
2023/01/13 15:14:57;;;;;;;29.90;9.20;;;;;;;10.51;100.00;98363.64;67865;1278;1016366;-60
2023/01/13 15:18:00;;;;;;;25.40;7.30;;;;;;;10.41;100.00;98365.89;67869;1277;1016202;-60
2023/01/13 15:21:02;;;;;;;26.90;8.80;;;;;;;10.33;100.00;98371.08;67850;1277;1016645;-60
2023/01/13 15:24:05;;;;;;;30.10;10.40;;;;;;;10.47;100.00;98373.33;67817;1278;1016433;-60
2023/01/13 15:27:07;;;;;;;;;;;;;;;10.52;100.00;98368.83;67819;1277;1017617;-60
2023/01/13 15:30:09;;;;;;;30.50;10.40;;;;;;;10.56;100.00;98368.01;67869;1278;1016949;-60
2023/01/13 15:33:13;;;;;;;23.90;7.70;;;;;;;10.59;100.00;98364.67;67828;1278;1016069;-59
2023/01/13 15:36:15;;;;;;;23.40;8.10;;;;;;;10.59;100.00;98369.20;67832;1277;1016051;-60
2023/01/13 15:39:18;;;;;;;26.50;9.10;;;;;;;10.50;100.00;98369.29;67861;1277;1018531;-60
2023/01/13 15:49:00;;;;;;;23.50;7.70;;;;;;;10.47;100.00;98370.39;67829;1278;1016443;-60
2023/01/13 15:52:03;;;;;;;23.30;7.00;;;;;;;10.45;100.00;98375.06;67798;1277;1016317;-60
2023/01/13 15:55:05;;;;;;;26.40;7.80;;;;;;;10.42;100.00;98375.21;67827;1277;1015959;-60
2023/01/13 15:58:08;;;;;;;31.50;10.70;;;;;;;10.40;100.00;98380.95;67853;1278;1016055;-60
2023/01/13 16:01:10;;;;;;;25.90;8.40;;;;;;;10.38;100.00;98380.94;67854;1278;1015853;-60
2023/01/13 16:04:13;;;;;;;36.00;13.00;;;;;;;10.35;100.00;98376.06;67812;1278;1016060;-60
2023/01/13 16:07:15;;;;;;;;;;;;;;;10.38;100.00;98377.75;67809;1278;1016553;-60
2023/01/13 16:10:18;;;;;;;36.90;12.40;;;;;;;10.38;100.00;98388.42;67832;1277;1016484;-60
2023/01/13 16:13:20;;;;;;;42.30;16.10;;;;;;;10.32;100.00;98388.98;67856;1278;1016403;-60
2023/01/13 16:16:23;;;;;;;38.20;13.80;;;;;;;10.23;100.00;98389.44;67856;1278;1016280;-60
2023/01/13 16:19:25;;;;;;;34.90;12.30;;;;;;;10.17;100.00;98391.88;67854;1277;1016488;-60
2023/01/13 16:22:27;;;;;;;32.20;13.00;;;;;;;10.22;100.00;98391.23;67806;1278;1018050;-60
2023/01/13 16:25:30;;;;;;;29.50;10.70;;;;;;;10.22;100.00;98387.77;67825;1278;1018064;-60
2023/01/13 16:28:34;;;;;;;43.90;22.40;;;;;;;10.19;100.00;98391.59;67862;1278;1016433;-60
2023/01/13 16:31:37;;;;;;;38.20;13.50;;;;;;;10.24;100.00;98400.17;67877;1278;1016243;-60
2023/01/13 16:34:39;;;;;;;49.80;15.60;;;;;;;10.24;100.00;98401.08;67812;1277;1016244;-60
2023/01/13 16:37:44;;;;;;;46.50;16.00;;;;;;;10.22;100.00;98399.94;67746;1278;1016332;-61
2023/01/13 16:40:47;;;;;;;32.60;11.70;;;;;;;10.25;100.00;98403.09;67887;1278;1016416;-60
2023/01/13 16:43:50;;;;;;;27.80;8.40;;;;;;;10.30;100.00;98408.04;67819;1278;1016658;-60
2023/01/13 16:46:52;;;;;;;23.70;7.70;;;;;;;10.24;100.00;98402.77;67889;1278;1016243;-60
2023/01/13 16:49:55;;;;;;;27.20;8.80;;;;;;;10.30;100.00;98408.72;67864;1278;1016077;-60
2023/01/13 16:52:57;;;;;;;28.30;9.50;;;;;;;10.30;100.00;98407.98;67790;1278;1016166;-61
2023/01/13 16:56:00;;;;;;;28.00;9.00;;;;;;;10.23;100.00;98403.90;67827;1278;1016673;-61
2023/01/13 16:59:02;;;;;;;;;;;;;;;10.15;100.00;98410.59;67874;1278;1018106;-60
2023/01/13 17:02:05;;;;;;;25.50;8.70;;;;;;;10.06;100.00;98407.44;67882;1277;1016819;-60
2023/01/13 17:05:07;;;;;;;28.20;9.10;;;;;;;10.04;100.00;98407.27;67817;1278;1016411;-60
2023/01/13 17:08:10;;;;;;;32.10;10.50;;;;;;;10.03;100.00;98410.12;67779;1277;1015951;-60
2023/01/13 17:11:12;;;;;;;32.10;11.00;;;;;;;10.06;100.00;98409.04;67836;1278;1016400;-60
2023/01/13 17:14:16;;;;;;;49.10;18.40;;;;;;;9.99;100.00;98411.55;67828;1278;1016110;-60
2023/01/13 17:17:19;;;;;;;30.50;10.70;;;;;;;10.12;100.00;98415.63;67819;1277;1016491;-60
2023/01/13 17:20:21;;;;;;;29.40;9.90;;;;;;;10.13;100.00;98415.55;67852;1278;1016304;-60
2023/01/13 17:23:23;;;;;;;34.10;11.60;;;;;;;10.14;100.00;98417.08;67759;1277;1016178;-60
2023/01/13 17:26:26;;;;;;;29.00;10.20;;;;;;;10.17;100.00;98418.98;67868;1277;1016437;-61
2023/01/13 17:29:29;;;;;;;30.40;10.30;;;;;;;10.19;100.00;98417.11;67819;1278;1016443;-60
2023/01/13 17:32:31;;;;;;;31.00;11.20;;;;;;;10.18;100.00;98419.98;67802;1278;1016426;-61
2023/01/13 17:35:33;;;;;;;39.80;14.10;;;;;;;10.21;100.00;98423.44;67831;1278;1016489;-60
2023/01/13 17:38:36;;;;;;;42.50;15.70;;;;;;;10.18;100.00;98419.23;67849;1278;1018290;-61
2023/01/13 17:41:38;;;;;;;31.20;10.30;;;;;;;10.11;100.00;98413.75;67779;1278;1017190;-61
2023/01/13 17:44:41;;;;;;;30.10;10.00;;;;;;;10.04;100.00;98416.52;67812;1278;1015675;-60
2023/01/13 17:47:43;;;;;;;26.90;8.50;;;;;;;10.09;100.00;98416.88;67865;1277;1017570;-60
2023/01/13 17:50:46;;;;;;;29.20;9.80;;;;;;;10.10;100.00;98422.79;67841;1277;1016418;-60
2023/01/13 17:53:48;;;;;;;30.10;9.40;;;;;;;10.10;100.00;98429.20;67832;1277;1016104;-60
2023/01/13 17:56:51;;;;;;;29.00;10.50;;;;;;;10.12;100.00;98427.00;67820;1277;1016307;-60
2023/01/13 17:59:53;;;;;;;29.80;9.50;;;;;;;10.15;100.00;98429.94;67850;1278;1016400;-60
2023/01/13 18:02:55;;;;;;;28.00;9.80;;;;;;;10.14;100.00;98424.92;67809;1278;1015934;-60
2023/01/13 18:05:58;;;;;;;32.50;10.90;;;;;;;10.09;100.00;98428.80;67813;1278;1016141;-60
2023/01/13 18:09:00;;;;;;;28.90;8.70;;;;;;;10.07;100.00;98432.41;67829;1278;1016410;-60
2023/01/13 18:12:03;;;;;;;27.50;9.20;;;;;;;10.04;100.00;98429.40;67830;1278;1016298;-60
2023/01/13 18:15:06;;;;;;;29.60;9.20;;;;;;;10.05;100.00;98437.06;67805;1278;1016562;-60
2023/01/13 18:18:08;;;;;;;29.30;10.50;;;;;;;10.05;100.00;98443.48;67855;1278;1016482;-60
2023/01/13 18:27:51;;;;;;;29.60;10.40;;;;;;;9.99;100.00;98450.75;67796;1277;1016433;-60
2023/01/13 18:30:53;;;;;;;31.60;9.50;;;;;;;9.94;100.00;98452.42;67797;1278;1015835;-60
2023/01/13 18:33:56;;;;;;;31.80;10.70;;;;;;;9.93;100.00;98452.30;67796;1278;1016511;-60
2023/01/13 18:36:58;;;;;;;39.70;14.00;;;;;;;9.92;100.00;98458.55;67855;1278;1016452;-61
2023/01/13 18:40:00;;;;;;;33.80;10.90;;;;;;;9.97;100.00;98461.52;67846;1278;1016044;-60
2023/01/13 18:43:03;;;;;;;;;;;;;;;9.95;100.00;98465.48;67745;1278;1016369;-61
2023/01/13 18:46:06;;;;;;;33.20;10.80;;;;;;;9.97;100.00;98463.92;67805;1277;1017168;-60
2023/01/13 18:49:08;;;;;;;29.70;10.30;;;;;;;9.96;100.00;98470.29;67829;1278;1016123;-60
2023/01/13 18:52:10;;;;;;;31.00;10.20;;;;;;;9.93;100.00;98471.19;67857;1277;1016469;-60
2023/01/13 18:55:13;;;;;;;39.00;14.80;;;;;;;9.90;100.00;98478.02;67809;1277;1015704;-60
2023/01/13 18:58:15;;;;;;;32.90;11.30;;;;;;;9.82;100.00;98486.88;67771;1278;1016357;-60
2023/01/13 19:01:21;;;;;;;31.00;10.90;;;;;;;9.76;100.00;98488.69;67795;1278;1016211;-60
2023/01/13 19:04:23;;;;;;;29.90;10.20;;;;;;;9.73;100.00;98488.35;67834;1278;1016332;-61
2023/01/13 19:07:28;;;;;;;31.60;11.10;;;;;;;9.66;100.00;98491.71;67794;1278;1016331;-61
2023/01/13 19:10:31;;;;;;;30.50;10.70;;;;;;;9.59;100.00;98497.23;67847;1277;1018549;-60
2023/01/13 19:13:34;;;;;;;30.20;10.90;;;;;;;9.53;100.00;98495.69;67778;1278;1017194;-60
2023/01/13 19:16:39;;;;;;;31.10;10.70;;;;;;;9.49;100.00;98499.23;67854;1278;1018667;-60
2023/01/13 19:19:42;;;;;;;29.80;10.00;;;;;;;9.41;100.00;98484.89;67824;1278;1016373;-60
2023/01/13 19:22:52;;;;;;;29.50;9.80;;;;;;;9.45;100.00;98476.83;67847;1278;1018106;-60
2023/01/13 19:25:55;;;;;;;32.00;10.90;;;;;;;9.48;100.00;98479.56;67872;1278;1016310;-61
2023/01/13 19:28:57;;;;;;;36.10;11.80;;;;;;;9.46;100.00;98493.35;67824;1277;1016326;-60
2023/01/13 19:32:00;;;;;;;30.60;11.20;;;;;;;9.41;100.00;98501.32;67804;1278;1016259;-60
2023/01/13 19:35:03;;;;;;;43.90;16.20;;;;;;;9.32;100.00;98501.52;67882;1278;1018189;-60
2023/01/13 19:38:05;;;;;;;39.10;13.20;;;;;;;9.20;100.00;98500.66;67827;1278;1019772;-60
2023/01/13 19:45:25;;;;;;;37.20;12.10;;;;;;;9.17;100.00;98501.18;67849;1278;1017586;-60
2023/01/13 19:47:54;;;;;;;31.50;10.70;;;;;;;9.25;100.00;98506.33;67796;1278;1016178;-59
2023/01/13 19:50:57;;;;;;;30.60;11.60;;;;;;;9.11;100.00;98505.59;67812;1278;1016469;-59
2023/01/13 19:54:00;;;;;;;38.60;11.70;;;;;;;9.18;100.00;98506.35;67816;1278;1016108;-59
2023/01/13 19:57:03;;;;;;;36.50;11.20;;;;;;;9.07;100.00;98510.35;67845;1278;1015663;-58
2023/01/13 20:00:05;;;;;;;32.60;10.90;;;;;;;9.02;100.00;98519.20;67833;1278;1016191;-59
2023/01/13 20:03:09;;;;;;;;;;;;;;;8.89;100.00;98525.02;67765;1278;1016372;-59
2023/01/13 20:06:12;;;;;;;33.20;11.60;;;;;;;8.85;100.00;98527.88;67767;1278;1016533;-59
2023/01/13 20:09:15;;;;;;;32.50;12.20;;;;;;;8.75;100.00;98528.75;67838;1278;1016437;-59
2023/01/13 20:12:18;;;;;;;;;;;;;;;8.81;100.00;98530.55;67795;1278;1016330;-59
2023/01/13 20:15:24;;;;;;;30.70;11.10;;;;;;;8.70;100.00;98532.90;67830;1277;1016186;-59
2023/01/13 20:18:31;;;;;;;30.20;11.00;;;;;;;8.79;100.00;98535.18;67793;1278;1016273;-59
2023/01/13 20:21:34;;;;;;;32.00;12.00;;;;;;;8.74;100.00;98534.59;67782;1278;1016255;-59
2023/01/13 20:24:37;;;;;;;;;;;;;;;8.73;100.00;98541.30;67860;1278;1015960;-60
2023/01/13 20:27:40;;;;;;;30.90;11.10;;;;;;;8.70;100.00;98543.87;67812;1278;1016399;-59
2023/01/13 20:30:42;;;;;;;30.90;10.10;;;;;;;8.73;100.00;98548.08;67789;1278;1016620;-59
2023/01/13 20:33:46;;;;;;;33.00;12.30;;;;;;;8.86;100.00;98556.92;67797;1278;1016552;-59
2023/01/13 20:37:10;;;;;;;32.50;11.70;;;;;;;8.87;100.00;98566.45;67809;1278;1016443;-59
2023/01/13 20:40:12;;;;;;;28.30;10.60;;;;;;;8.88;100.00;98567.60;67805;1278;1016507;-59
2023/01/13 20:43:15;;;;;;;;;;;;;;;8.94;100.00;98575.60;67801;1278;1016275;-59
2023/01/13 20:46:17;;;;;;;32.20;11.80;;;;;;;8.93;100.00;98579.88;67809;1277;1016280;-58
2023/01/13 20:49:20;;;;;;;28.70;10.90;;;;;;;8.86;100.00;98575.56;67818;1278;1016181;-59
2023/01/13 20:52:22;;;;;;;;;;;;;;;8.84;100.00;98582.33;67805;1278;1016227;-59
2023/01/13 20:55:25;;;;;;;32.30;11.40;;;;;;;8.80;100.00;98582.88;67749;1278;1016365;-59
2023/01/13 20:58:27;;;;;;;29.30;10.90;;;;;;;8.83;100.00;98583.73;67773;1278;1016290;-59
2023/01/13 21:01:30;;;;;;;29.90;10.80;;;;;;;8.86;100.00;98583.09;67790;1277;1016436;-59
2023/01/13 21:04:33;;;;;;;25.80;9.80;;;;;;;8.86;100.00;98587.06;67764;1277;1016467;-59
2023/01/13 21:07:35;;;;;;;26.80;10.00;;;;;;;8.89;100.00;98595.63;67828;1278;1016265;-58
2023/01/13 21:10:38;;;;;;;30.00;11.50;;;;;;;8.89;100.00;98591.45;67815;1278;1016507;-59
2023/01/13 21:17:00;;;;;;;34.10;11.70;;;;;;;8.93;100.00;98604.26;67824;1278;1016320;-60
2023/01/13 21:20:02;;;;;;;29.60;10.90;;;;;;;8.95;100.00;98610.45;67852;1278;1016498;-60
2023/01/13 21:23:05;;;;;;;28.80;10.90;;;;;;;8.91;100.00;98611.55;67810;1277;1016508;-60
2023/01/13 21:26:07;;;;;;;29.60;10.10;;;;;;;8.83;100.00;98612.54;67799;1278;1016710;-60
2023/01/13 21:29:10;;;;;;;30.40;11.30;;;;;;;8.77;100.00;98619.65;67795;1277;1016449;-60
2023/01/13 21:32:12;;;;;;;34.00;12.30;;;;;;;8.75;100.00;98625.52;67828;1277;1016418;-59
2023/01/13 21:35:14;;;;;;;29.80;11.10;;;;;;;8.74;100.00;98630.30;67770;1278;1016321;-59
2023/01/13 21:38:17;;;;;;;32.90;11.30;;;;;;;8.72;100.00;98637.05;67813;1278;1016385;-60
2023/01/13 21:47:47;;;;;;;29.70;10.30;;;;;;;8.66;100.00;98643.45;67777;1278;1018403;-60
2023/01/13 21:48:02;;;;;;;31.60;9.40;;;;;;;8.69;100.00;98661.73;67822;1278;1018514;-59
2023/01/13 21:51:05;;;;;;;29.80;9.20;;;;;;;8.70;100.00;98665.19;67831;1278;1016407;-59
2023/01/13 21:54:07;;;;;;;27.40;8.80;;;;;;;8.66;100.00;98669.80;67862;1277;1016195;-59
2023/01/13 21:57:10;;;;;;;35.00;11.30;;;;;;;8.63;100.00;98672.38;67777;1278;1016391;-59
2023/01/13 22:00:12;;;;;;;28.60;9.60;;;;;;;8.65;100.00;98664.95;67853;1278;1016320;-59
2023/01/13 22:03:17;;;;;;;27.90;9.30;;;;;;;8.63;100.00;98668.06;67842;1278;1016391;-59
2023/01/13 22:06:19;;;;;;;28.40;10.10;;;;;;;8.55;100.00;98665.32;67846;1277;1016193;-59
2023/01/13 22:09:22;;;;;;;27.90;10.50;;;;;;;8.67;100.00;98662.94;67825;1278;1016304;-59
2023/01/13 22:12:24;;;;;;;33.50;12.90;;;;;;;8.66;100.00;98658.79;67783;1278;1016366;-59
2023/01/13 22:15:27;;;;;;;32.10;11.40;;;;;;;8.80;100.00;98658.71;67763;1278;1016425;-59
2023/01/13 22:18:29;;;;;;;35.20;13.10;;;;;;;8.79;100.00;98658.08;67827;1278;1016137;-59
2023/01/13 22:21:31;;;;;;;32.80;11.60;;;;;;;8.81;100.00;98661.09;67855;1278;1016287;-59
2023/01/13 22:24:35;;;;;;;29.80;10.30;;;;;;;8.71;100.00;98661.16;65741;1278;1016492;-59
2023/01/13 22:27:39;;;;;;;;;;;;;;;8.63;100.00;98668.22;67842;1278;1018093;-59
2023/01/13 22:30:42;;;;;;;29.40;10.60;;;;;;;8.55;100.00;98675.81;67858;1278;1016462;-59
2023/01/13 22:33:45;;;;;;;29.10;11.20;;;;;;;8.48;100.00;98677.21;67765;1278;1016490;-59
2023/01/13 22:36:48;;;;;;;30.50;11.30;;;;;;;8.46;100.00;98681.83;67803;1278;1016458;-59
2023/01/13 22:39:50;;;;;;;32.60;12.20;;;;;;;8.42;100.00;98691.96;67786;1278;1018549;-59
2023/01/13 22:42:53;;;;;;;;;;;;;;;8.39;100.00;98693.52;67859;1278;1016484;-59
2023/01/13 22:45:56;;;;;;;32.20;12.30;;;;;;;8.40;100.00;98694.34;67808;1278;1018802;-59
2023/01/13 22:48:58;;;;;;;34.50;12.20;;;;;;;8.39;100.00;98698.61;67784;1278;1016478;-59
2023/01/13 22:52:01;;;;;;;32.40;12.10;;;;;;;8.40;100.00;98701.34;67796;1277;1016295;-59
2023/01/13 22:55:05;;;;;;;33.40;12.60;;;;;;;8.38;100.00;98706.12;67831;1278;1019582;-59
2023/01/13 22:58:08;;;;;;;32.70;12.10;;;;;;;8.38;100.00;98707.35;67851;1277;1015996;-59